Main page
METAR-TAF:

METAR-TAF

Airports :

Dehradun Airport

Dehradun, India

latitude: 30-11-23N, longitude: 78-10-49E, elevation: 558 m

METAR: missing

Time: 04:25 (22:55 UTC)

Forecast

The report was made 11 hours and 54 minutes ago, at 11:01 UTC
Forecast valid from 05 at 12 UTC to 05 at 21 UTC
Wind 5 kt from the West
Visibility: 2500 m
Scattered clouds at a height of 2000 ft
Broken clouds at a height of 6000 ft
haze, light rain
Temporary
from 05 at 13 UTC to 05 at 15 UTC
Few clouds at a height of 3000 ft, Cumulonimbus.

TAF: VIDN 051101Z 0512/0521 27005KT 2500 HZ -RA SCT020 BKN060 TEMPO 0513/0515 FEW030CB

Weather observations and forecasts of more than 4000 airports (METAR and TAF reports).

The available stations are represented by yellow and red dots on the map.

Hover mouse over dot to see the name of the station.

Then click to see weather observations and forecasts.

To change the map : click on the green buttons with a black cross to zoom in, on the green button with a dash to zoom out, or on the green arrows for adjacent maps.


METAR-TAF: